sensor_id;sensor_type;location;lat;lon;timestamp;P1;durP1;ratioP1;P2;durP2;ratioP2
4353;SDS011;11018;51.258;6.806;2024-02-26T00:02:15;2.40;;;1.30;;
4353;SDS011;11018;51.258;6.806;2024-02-26T00:04:41;2.75;;;1.40;;
4353;SDS011;11018;51.258;6.806;2024-02-26T00:07:06;2.90;;;1.67;;
4353;SDS011;11018;51.258;6.806;2024-02-26T00:09:32;2.00;;;1.23;;
4353;SDS011;11018;51.258;6.806;2024-02-26T00:12:01;2.70;;;1.30;;
4353;SDS011;11018;51.258;6.806;2024-02-26T00:14:28;3.03;;;1.55;;
4353;SDS011;11018;51.258;6.806;2024-02-26T00:16:54;1.70;;;1.20;;
4353;SDS011;11018;51.258;6.806;2024-02-26T00:19:20;3.00;;;1.50;;
4353;SDS011;11018;51.258;6.806;2024-02-26T00:21:45;2.80;;;1.30;;
4353;SDS011;11018;51.258;6.806;2024-02-26T00:24:11;5.25;;;2.50;;
4353;SDS011;11018;51.258;6.806;2024-02-26T00:26:37;2.38;;;1.40;;
4353;SDS011;11018;51.258;6.806;2024-02-26T00:29:02;3.10;;;1.70;;
4353;SDS011;11018;51.258;6.806;2024-02-26T00:31:28;2.50;;;1.60;;
4353;SDS011;11018;51.258;6.806;2024-02-26T00:33:53;3.43;;;1.43;;
4353;SDS011;11018;51.258;6.806;2024-02-26T00:36:19;1.80;;;1.30;;
4353;SDS011;11018;51.258;6.806;2024-02-26T00:38:44;1.93;;;1.10;;
4353;SDS011;11018;51.258;6.806;2024-02-26T00:41:15;3.60;;;1.70;;
4353;SDS011;11018;51.258;6.806;2024-02-26T00:43:41;3.00;;;1.30;;
4353;SDS011;11018;51.258;6.806;2024-02-26T00:46:07;3.70;;;1.30;;
4353;SDS011;11018;51.258;6.806;2024-02-26T00:48:33;1.70;;;1.30;;
4353;SDS011;11018;51.258;6.806;2024-02-26T00:50:58;3.30;;;1.40;;
4353;SDS011;11018;51.258;6.806;2024-02-26T00:53:24;2.60;;;1.60;;
4353;SDS011;11018;51.258;6.806;2024-02-26T00:55:50;2.58;;;1.45;;
4353;SDS011;11018;51.258;6.806;2024-02-26T00:58:16;4.30;;;1.50;;
4353;SDS011;11018;51.258;6.806;2024-02-26T01:00:41;5.77;;;2.20;;
4353;SDS011;11018;51.258;6.806;2024-02-26T01:03:07;3.97;;;1.73;;
4353;SDS011;11018;51.258;6.806;2024-02-26T01:05:33;3.43;;;1.43;;
4353;SDS011;11018;51.258;6.806;2024-02-26T01:07:58;2.47;;;1.40;;
4353;SDS011;11018;51.258;6.806;2024-02-26T01:10:24;1.77;;;1.37;;
4353;SDS011;11018;51.258;6.806;2024-02-26T01:12:49;3.80;;;1.40;;
4353;SDS011;11018;51.258;6.806;2024-02-26T01:15:15;2.70;;;1.50;;
4353;SDS011;11018;51.258;6.806;2024-02-26T01:17:41;3.70;;;1.63;;
4353;SDS011;11018;51.258;6.806;2024-02-26T01:20:06;2.55;;;1.48;;
4353;SDS011;11018;51.258;6.806;2024-02-26T01:22:33;2.40;;;1.40;;
4353;SDS011;11018;51.258;6.806;2024-02-26T01:24:59;5.07;;;1.60;;
4353;SDS011;11018;51.258;6.806;2024-02-26T01:27:24;3.15;;;1.40;;
4353;SDS011;11018;51.258;6.806;2024-02-26T01:29:52;3.35;;;1.40;;
4353;SDS011;11018;51.258;6.806;2024-02-26T01:32:17;4.00;;;1.60;;
4353;SDS011;11018;51.258;6.806;2024-02-26T01:34:44;1.70;;;1.30;;
4353;SDS011;11018;51.258;6.806;2024-02-26T01:37:10;4.90;;;1.37;;
4353;SDS011;11018;51.258;6.806;2024-02-26T01:39:36;2.17;;;1.20;;
4353;SDS011;11018;51.258;6.806;2024-02-26T01:42:01;3.43;;;1.40;;
4353;SDS011;11018;51.258;6.806;2024-02-26T01:44:27;2.10;;;1.30;;
4353;SDS011;11018;51.258;6.806;2024-02-26T01:46:53;3.45;;;1.50;;
4353;SDS011;11018;51.258;6.806;2024-02-26T01:49:19;2.00;;;1.30;;
4353;SDS011;11018;51.258;6.806;2024-02-26T01:51:45;2.72;;;1.70;;
4353;SDS011;11018;51.258;6.806;2024-02-26T01:54:11;2.60;;;1.60;;
4353;SDS011;11018;51.258;6.806;2024-02-26T01:56:37;2.40;;;1.50;;
4353;SDS011;11018;51.258;6.806;2024-02-26T01:59:05;2.57;;;1.30;;
4353;SDS011;11018;51.258;6.806;2024-02-26T02:01:31;3.63;;;1.70;;
4353;SDS011;11018;51.258;6.806;2024-02-26T02:03:59;2.80;;;1.40;;
4353;SDS011;11018;51.258;6.806;2024-02-26T02:06:25;2.45;;;1.20;;
4353;SDS011;11018;51.258;6.806;2024-02-26T02:08:52;2.50;;;1.60;;
4353;SDS011;11018;51.258;6.806;2024-02-26T02:11:19;3.75;;;1.63;;
4353;SDS011;11018;51.258;6.806;2024-02-26T02:13:45;3.35;;;1.88;;
4353;SDS011;11018;51.258;6.806;2024-02-26T02:16:11;2.90;;;1.60;;
4353;SDS011;11018;51.258;6.806;2024-02-26T02:18:37;2.33;;;1.80;;
4353;SDS011;11018;51.258;6.806;2024-02-26T02:21:02;4.60;;;2.60;;
4353;SDS011;11018;51.258;6.806;2024-02-26T02:23:28;3.67;;;2.53;;
4353;SDS011;11018;51.258;6.806;2024-02-26T02:25:54;2.60;;;1.58;;
4353;SDS011;11018;51.258;6.806;2024-02-26T02:28:22;4.30;;;2.00;;
4353;SDS011;11018;51.258;6.806;2024-02-26T02:30:50;2.90;;;1.70;;
4353;SDS011;11018;51.258;6.806;2024-02-26T02:33:16;3.10;;;1.77;;
4353;SDS011;11018;51.258;6.806;2024-02-26T02:35:42;1.30;;;1.10;;
4353;SDS011;11018;51.258;6.806;2024-02-26T02:38:07;2.20;;;1.60;;
4353;SDS011;11018;51.258;6.806;2024-02-26T02:40:33;4.00;;;1.60;;
4353;SDS011;11018;51.258;6.806;2024-02-26T02:42:59;3.83;;;2.30;;
4353;SDS011;11018;51.258;6.806;2024-02-26T02:45:26;3.53;;;2.00;;
4353;SDS011;11018;51.258;6.806;2024-02-26T02:47:52;2.53;;;1.90;;
4353;SDS011;11018;51.258;6.806;2024-02-26T02:50:18;2.07;;;1.60;;
4353;SDS011;11018;51.258;6.806;2024-02-26T02:52:44;4.30;;;2.10;;
4353;SDS011;11018;51.258;6.806;2024-02-26T02:55:09;4.07;;;1.83;;
4353;SDS011;11018;51.258;6.806;2024-02-26T02:57:35;3.73;;;2.20;;
4353;SDS011;11018;51.258;6.806;2024-02-26T03:00:06;3.25;;;1.90;;
4353;SDS011;11018;51.258;6.806;2024-02-26T03:02:32;3.25;;;2.17;;
4353;SDS011;11018;51.258;6.806;2024-02-26T03:05:00;3.63;;;1.80;;
4353;SDS011;11018;51.258;6.806;2024-02-26T03:07:27;5.00;;;1.80;;
4353;SDS011;11018;51.258;6.806;2024-02-26T03:09:52;2.60;;;1.80;;
4353;SDS011;11018;51.258;6.806;2024-02-26T03:12:18;2.40;;;1.95;;
4353;SDS011;11018;51.258;6.806;2024-02-26T03:14:44;3.60;;;1.80;;
4353;SDS011;11018;51.258;6.806;2024-02-26T03:17:09;2.00;;;1.80;;
4353;SDS011;11018;51.258;6.806;2024-02-26T03:19:35;1.75;;;1.65;;
4353;SDS011;11018;51.258;6.806;2024-02-26T03:22:00;3.67;;;1.80;;
4353;SDS011;11018;51.258;6.806;2024-02-26T03:24:26;2.38;;;1.70;;
4353;SDS011;11018;51.258;6.806;2024-02-26T03:26:51;3.00;;;2.20;;
4353;SDS011;11018;51.258;6.806;2024-02-26T03:29:17;3.35;;;2.10;;
4353;SDS011;11018;51.258;6.806;2024-02-26T03:31:42;3.47;;;2.05;;
4353;SDS011;11018;51.258;6.806;2024-02-26T03:34:08;2.75;;;1.85;;
4353;SDS011;11018;51.258;6.806;2024-02-26T03:36:33;1.83;;;1.50;;
4353;SDS011;11018;51.258;6.806;2024-02-26T03:38:59;3.38;;;1.40;;
4353;SDS011;11018;51.258;6.806;2024-02-26T03:41:25;2.10;;;1.80;;
4353;SDS011;11018;51.258;6.806;2024-02-26T03:43:51;2.55;;;1.80;;
4353;SDS011;11018;51.258;6.806;2024-02-26T03:46:16;2.20;;;1.60;;
4353;SDS011;11018;51.258;6.806;2024-02-26T03:48:42;2.13;;;1.70;;
4353;SDS011;11018;51.258;6.806;2024-02-26T03:51:08;6.70;;;2.40;;
4353;SDS011;11018;51.258;6.806;2024-02-26T03:53:35;4.05;;;1.80;;
4353;SDS011;11018;51.258;6.806;2024-02-26T03:56:04;5.10;;;2.20;;
4353;SDS011;11018;51.258;6.806;2024-02-26T03:58:30;3.13;;;1.48;;
4353;SDS011;11018;51.258;6.806;2024-02-26T04:00:56;4.10;;;1.97;;
4353;SDS011;11018;51.258;6.806;2024-02-26T04:03:21;2.73;;;1.80;;
4353;SDS011;11018;51.258;6.806;2024-02-26T04:05:47;4.10;;;2.20;;
4353;SDS011;11018;51.258;6.806;2024-02-26T04:08:13;2.50;;;2.17;;
4353;SDS011;11018;51.258;6.806;2024-02-26T04:10:38;2.60;;;2.00;;
4353;SDS011;11018;51.258;6.806;2024-02-26T04:13:04;2.13;;;1.60;;
4353;SDS011;11018;51.258;6.806;2024-02-26T04:15:31;1.90;;;1.70;;
4353;SDS011;11018;51.258;6.806;2024-02-26T04:17:57;2.92;;;2.10;;
4353;SDS011;11018;51.258;6.806;2024-02-26T04:20:22;3.30;;;1.93;;
4353;SDS011;11018;51.258;6.806;2024-02-26T04:22:48;3.07;;;1.80;;
4353;SDS011;11018;51.258;6.806;2024-02-26T04:25:13;2.33;;;1.70;;
4353;SDS011;11018;51.258;6.806;2024-02-26T04:27:40;2.50;;;1.90;;
4353;SDS011;11018;51.258;6.806;2024-02-26T04:30:06;3.10;;;1.70;;
4353;SDS011;11018;51.258;6.806;2024-02-26T04:32:32;3.60;;;2.00;;
4353;SDS011;11018;51.258;6.806;2024-02-26T04:34:59;2.53;;;1.80;;
4353;SDS011;11018;51.258;6.806;2024-02-26T04:37:25;2.65;;;1.83;;
4353;SDS011;11018;51.258;6.806;2024-02-26T04:39:55;2.65;;;1.90;;
4353;SDS011;11018;51.258;6.806;2024-02-26T04:42:23;2.67;;;1.67;;
4353;SDS011;11018;51.258;6.806;2024-02-26T04:44:48;3.38;;;2.38;;
4353;SDS011;11018;51.258;6.806;2024-02-26T04:47:14;2.85;;;2.05;;
4353;SDS011;11018;51.258;6.806;2024-02-26T04:49:39;3.83;;;2.20;;
4353;SDS011;11018;51.258;6.806;2024-02-26T04:52:05;2.30;;;1.90;;
4353;SDS011;11018;51.258;6.806;2024-02-26T04:54:30;2.90;;;2.00;;
4353;SDS011;11018;51.258;6.806;2024-02-26T04:56:56;2.60;;;2.20;;
4353;SDS011;11018;51.258;6.806;2024-02-26T04:59:21;4.87;;;2.30;;
4353;SDS011;11018;51.258;6.806;2024-02-26T05:01:47;3.00;;;2.50;;
4353;SDS011;11018;51.258;6.806;2024-02-26T05:04:12;3.23;;;2.10;;
4353;SDS011;11018;51.258;6.806;2024-02-26T05:06:38;3.40;;;2.20;;
4353;SDS011;11018;51.258;6.806;2024-02-26T05:09:03;3.80;;;2.50;;
4353;SDS011;11018;51.258;6.806;2024-02-26T05:11:29;4.87;;;2.90;;
4353;SDS011;11018;51.258;6.806;2024-02-26T05:13:55;3.30;;;2.40;;
4353;SDS011;11018;51.258;6.806;2024-02-26T05:16:20;4.10;;;2.30;;
4353;SDS011;11018;51.258;6.806;2024-02-26T05:18:49;2.70;;;2.30;;
4353;SDS011;11018;51.258;6.806;2024-02-26T05:21:15;4.65;;;2.97;;
4353;SDS011;11018;51.258;6.806;2024-02-26T05:23:40;5.13;;;2.93;;
4353;SDS011;11018;51.258;6.806;2024-02-26T05:26:08;3.65;;;2.40;;
4353;SDS011;11018;51.258;6.806;2024-02-26T05:28:34;3.30;;;2.30;;
4353;SDS011;11018;51.258;6.806;2024-02-26T05:31:00;4.40;;;2.90;;
4353;SDS011;11018;51.258;6.806;2024-02-26T05:33:25;4.60;;;2.77;;
4353;SDS011;11018;51.258;6.806;2024-02-26T05:35:51;3.20;;;2.60;;
4353;SDS011;11018;51.258;6.806;2024-02-26T05:38:16;7.60;;;2.83;;
4353;SDS011;11018;51.258;6.806;2024-02-26T05:40:42;4.47;;;3.40;;
4353;SDS011;11018;51.258;6.806;2024-02-26T05:43:07;4.87;;;3.20;;
4353;SDS011;11018;51.258;6.806;2024-02-26T05:45:33;4.93;;;3.27;;
4353;SDS011;11018;51.258;6.806;2024-02-26T05:47:59;4.25;;;3.00;;
4353;SDS011;11018;51.258;6.806;2024-02-26T05:50:24;3.08;;;2.70;;
4353;SDS011;11018;51.258;6.806;2024-02-26T05:52:50;4.78;;;3.70;;
4353;SDS011;11018;51.258;6.806;2024-02-26T05:55:16;3.83;;;3.38;;
4353;SDS011;11018;51.258;6.806;2024-02-26T05:57:41;3.00;;;2.80;;
4353;SDS011;11018;51.258;6.806;2024-02-26T06:00:07;4.30;;;2.90;;
4353;SDS011;11018;51.258;6.806;2024-02-26T06:02:33;4.35;;;3.45;;
4353;SDS011;11018;51.258;6.806;2024-02-26T06:04:58;4.17;;;3.73;;
4353;SDS011;11018;51.258;6.806;2024-02-26T06:07:24;3.95;;;3.30;;
4353;SDS011;11018;51.258;6.806;2024-02-26T06:09:50;8.52;;;5.45;;
4353;SDS011;11018;51.258;6.806;2024-02-26T06:12:15;6.50;;;4.85;;
4353;SDS011;11018;51.258;6.806;2024-02-26T06:14:43;6.90;;;3.47;;
4353;SDS011;11018;51.258;6.806;2024-02-26T06:17:09;4.67;;;2.93;;
4353;SDS011;11018;51.258;6.806;2024-02-26T06:19:35;5.23;;;3.57;;
4353;SDS011;11018;51.258;6.806;2024-02-26T06:22:00;7.70;;;3.80;;
4353;SDS011;11018;51.258;6.806;2024-02-26T06:24:26;7.00;;;3.43;;
4353;SDS011;11018;51.258;6.806;2024-02-26T06:26:51;4.00;;;3.20;;
4353;SDS011;11018;51.258;6.806;2024-02-26T06:29:17;8.17;;;4.67;;
4353;SDS011;11018;51.258;6.806;2024-02-26T06:31:42;6.37;;;4.10;;
4353;SDS011;11018;51.258;6.806;2024-02-26T06:34:08;11.60;;;4.60;;
4353;SDS011;11018;51.258;6.806;2024-02-26T06:36:34;13.45;;;5.50;;
4353;SDS011;11018;51.258;6.806;2024-02-26T06:38:59;7.75;;;5.15;;
4353;SDS011;11018;51.258;6.806;2024-02-26T06:41:25;7.20;;;4.03;;
4353;SDS011;11018;51.258;6.806;2024-02-26T06:43:52;6.22;;;3.50;;
4353;SDS011;11018;51.258;6.806;2024-02-26T06:46:18;7.13;;;3.90;;
4353;SDS011;11018;51.258;6.806;2024-02-26T06:48:44;5.23;;;4.03;;
4353;SDS011;11018;51.258;6.806;2024-02-26T06:51:09;5.33;;;4.00;;
4353;SDS011;11018;51.258;6.806;2024-02-26T06:53:35;7.00;;;4.73;;
4353;SDS011;11018;51.258;6.806;2024-02-26T06:56:00;6.57;;;4.30;;
4353;SDS011;11018;51.258;6.806;2024-02-26T06:58:26;5.17;;;3.43;;
4353;SDS011;11018;51.258;6.806;2024-02-26T07:00:51;5.70;;;3.80;;
4353;SDS011;11018;51.258;6.806;2024-02-26T07:03:17;7.97;;;3.97;;
4353;SDS011;11018;51.258;6.806;2024-02-26T07:05:42;6.63;;;4.30;;
4353;SDS011;11018;51.258;6.806;2024-02-26T07:08:10;6.10;;;4.18;;
4353;SDS011;11018;51.258;6.806;2024-02-26T07:10:35;7.15;;;4.47;;
4353;SDS011;11018;51.258;6.806;2024-02-26T07:13:01;5.68;;;4.22;;
4353;SDS011;11018;51.258;6.806;2024-02-26T07:15:26;5.27;;;4.07;;
4353;SDS011;11018;51.258;6.806;2024-02-26T07:17:52;6.10;;;3.93;;
4353;SDS011;11018;51.258;6.806;2024-02-26T07:20:17;4.17;;;3.37;;
4353;SDS011;11018;51.258;6.806;2024-02-26T07:22:43;5.22;;;3.80;;
4353;SDS011;11018;51.258;6.806;2024-02-26T07:25:09;7.38;;;4.80;;
4353;SDS011;11018;51.258;6.806;2024-02-26T07:27:38;11.85;;;4.40;;
4353;SDS011;11018;51.258;6.806;2024-02-26T07:30:05;5.88;;;3.35;;
4353;SDS011;11018;51.258;6.806;2024-02-26T07:32:31;4.50;;;3.20;;
4353;SDS011;11018;51.258;6.806;2024-02-26T07:34:57;3.77;;;3.37;;
4353;SDS011;11018;51.258;6.806;2024-02-26T07:37:22;5.78;;;3.60;;
4353;SDS011;11018;51.258;6.806;2024-02-26T07:39:48;6.97;;;4.25;;
4353;SDS011;11018;51.258;6.806;2024-02-26T07:42:13;4.63;;;3.50;;
4353;SDS011;11018;51.258;6.806;2024-02-26T07:44:39;6.17;;;4.17;;
4353;SDS011;11018;51.258;6.806;2024-02-26T07:47:07;6.18;;;4.00;;
4353;SDS011;11018;51.258;6.806;2024-02-26T07:49:34;4.32;;;3.25;;
4353;SDS011;11018;51.258;6.806;2024-02-26T07:51:59;6.30;;;3.60;;
4353;SDS011;11018;51.258;6.806;2024-02-26T07:54:25;7.03;;;3.10;;
4353;SDS011;11018;51.258;6.806;2024-02-26T07:56:50;5.00;;;3.73;;
4353;SDS011;11018;51.258;6.806;2024-02-26T07:59:23;6.67;;;3.50;;
4353;SDS011;11018;51.258;6.806;2024-02-26T08:01:52;3.93;;;3.10;;
4353;SDS011;11018;51.258;6.806;2024-02-26T08:04:17;4.03;;;3.30;;
4353;SDS011;11018;51.258;6.806;2024-02-26T08:06:43;7.17;;;3.30;;
4353;SDS011;11018;51.258;6.806;2024-02-26T08:09:08;4.40;;;3.00;;
4353;SDS011;11018;51.258;6.806;2024-02-26T08:11:34;4.80;;;3.90;;
4353;SDS011;11018;51.258;6.806;2024-02-26T08:14:00;7.73;;;4.20;;
4353;SDS011;11018;51.258;6.806;2024-02-26T08:16:26;6.70;;;3.08;;
4353;SDS011;11018;51.258;6.806;2024-02-26T08:18:51;5.18;;;3.10;;
4353;SDS011;11018;51.258;6.806;2024-02-26T08:21:17;6.95;;;4.20;;
4353;SDS011;11018;51.258;6.806;2024-02-26T08:23:43;6.73;;;3.47;;
4353;SDS011;11018;51.258;6.806;2024-02-26T08:26:09;4.28;;;2.97;;
4353;SDS011;11018;51.258;6.806;2024-02-26T08:28:36;4.57;;;2.97;;
4353;SDS011;11018;51.258;6.806;2024-02-26T08:31:02;5.93;;;3.80;;
4353;SDS011;11018;51.258;6.806;2024-02-26T08:33:28;4.45;;;2.90;;
4353;SDS011;11018;51.258;6.806;2024-02-26T08:35:54;4.32;;;3.10;;
4353;SDS011;11018;51.258;6.806;2024-02-26T08:38:19;4.90;;;3.60;;
4353;SDS011;11018;51.258;6.806;2024-02-26T08:40:45;7.10;;;3.30;;
4353;SDS011;11018;51.258;6.806;2024-02-26T08:43:10;3.97;;;2.80;;
4353;SDS011;11018;51.258;6.806;2024-02-26T08:45:36;4.83;;;3.20;;
4353;SDS011;11018;51.258;6.806;2024-02-26T08:48:02;3.43;;;2.90;;
4353;SDS011;11018;51.258;6.806;2024-02-26T08:50:28;8.00;;;3.17;;
4353;SDS011;11018;51.258;6.806;2024-02-26T08:52:53;5.00;;;3.40;;
4353;SDS011;11018;51.258;6.806;2024-02-26T08:55:19;5.40;;;3.30;;
4353;SDS011;11018;51.258;6.806;2024-02-26T08:57:44;3.57;;;2.80;;
4353;SDS011;11018;51.258;6.806;2024-02-26T09:00:10;4.50;;;3.13;;
4353;SDS011;11018;51.258;6.806;2024-02-26T09:02:36;4.32;;;2.90;;
4353;SDS011;11018;51.258;6.806;2024-02-26T09:05:08;5.97;;;3.33;;
4353;SDS011;11018;51.258;6.806;2024-02-26T09:07:35;4.10;;;2.80;;
4353;SDS011;11018;51.258;6.806;2024-02-26T09:10:01;4.00;;;2.53;;
4353;SDS011;11018;51.258;6.806;2024-02-26T09:12:27;7.60;;;2.90;;
4353;SDS011;11018;51.258;6.806;2024-02-26T09:14:53;5.18;;;3.10;;
4353;SDS011;11018;51.258;6.806;2024-02-26T09:17:21;4.18;;;2.95;;
4353;SDS011;11018;51.258;6.806;2024-02-26T09:19:46;5.33;;;2.80;;
4353;SDS011;11018;51.258;6.806;2024-02-26T09:22:12;4.20;;;3.20;;
4353;SDS011;11018;51.258;6.806;2024-02-26T09:24:37;4.60;;;2.80;;
4353;SDS011;11018;51.258;6.806;2024-02-26T09:27:03;3.92;;;3.00;;
4353;SDS011;11018;51.258;6.806;2024-02-26T09:29:29;5.00;;;3.30;;
4353;SDS011;11018;51.258;6.806;2024-02-26T09:31:54;4.80;;;3.13;;
4353;SDS011;11018;51.258;6.806;2024-02-26T09:34:20;7.37;;;3.73;;
4353;SDS011;11018;51.258;6.806;2024-02-26T09:36:46;6.20;;;3.50;;
4353;SDS011;11018;51.258;6.806;2024-02-26T09:39:11;5.60;;;3.57;;
4353;SDS011;11018;51.258;6.806;2024-02-26T09:41:39;6.30;;;3.20;;
4353;SDS011;11018;51.258;6.806;2024-02-26T09:44:05;6.32;;;3.60;;
4353;SDS011;11018;51.258;6.806;2024-02-26T09:46:30;3.80;;;3.30;;
4353;SDS011;11018;51.258;6.806;2024-02-26T09:48:56;4.97;;;3.22;;
4353;SDS011;11018;51.258;6.806;2024-02-26T09:51:23;5.45;;;3.17;;
4353;SDS011;11018;51.258;6.806;2024-02-26T09:53:51;6.57;;;3.40;;
4353;SDS011;11018;51.258;6.806;2024-02-26T09:56:17;5.50;;;3.40;;
4353;SDS011;11018;51.258;6.806;2024-02-26T09:58:43;4.43;;;3.20;;
4353;SDS011;11018;51.258;6.806;2024-02-26T10:01:17;6.40;;;3.30;;
4353;SDS011;11018;51.258;6.806;2024-02-26T10:03:44;5.25;;;3.20;;
4353;SDS011;11018;51.258;6.806;2024-02-26T10:06:17;6.20;;;3.00;;
4353;SDS011;11018;51.258;6.806;2024-02-26T10:08:43;4.05;;;3.38;;
4353;SDS011;11018;51.258;6.806;2024-02-26T10:11:10;4.28;;;3.30;;
4353;SDS011;11018;51.258;6.806;2024-02-26T10:13:35;4.90;;;3.40;;
4353;SDS011;11018;51.258;6.806;2024-02-26T10:16:01;5.40;;;4.00;;
4353;SDS011;11018;51.258;6.806;2024-02-26T10:18:44;5.25;;;3.33;;
4353;SDS011;11018;51.258;6.806;2024-02-26T10:21:24;4.97;;;3.50;;
4353;SDS011;11018;51.258;6.806;2024-02-26T10:23:50;5.15;;;3.70;;
4353;SDS011;11018;51.258;6.806;2024-02-26T10:26:16;4.15;;;3.28;;
4353;SDS011;11018;51.258;6.806;2024-02-26T10:28:42;4.85;;;3.13;;
4353;SDS011;11018;51.258;6.806;2024-02-26T10:31:09;6.07;;;3.33;;
4353;SDS011;11018;51.258;6.806;2024-02-26T10:33:36;5.90;;;3.80;;
4353;SDS011;11018;51.258;6.806;2024-02-26T10:36:05;5.00;;;3.67;;
4353;SDS011;11018;51.258;6.806;2024-02-26T10:38:32;5.72;;;4.30;;
4353;SDS011;11018;51.258;6.806;2024-02-26T10:40:59;7.43;;;3.50;;
4353;SDS011;11018;51.258;6.806;2024-02-26T10:43:27;4.50;;;3.50;;
4353;SDS011;11018;51.258;6.806;2024-02-26T10:45:54;6.57;;;4.33;;
4353;SDS011;11018;51.258;6.806;2024-02-26T10:48:20;5.55;;;3.97;;
4353;SDS011;11018;51.258;6.806;2024-02-26T10:50:46;7.13;;;4.00;;
4353;SDS011;11018;51.258;6.806;2024-02-26T10:53:15;6.53;;;3.80;;
4353;SDS011;11018;51.258;6.806;2024-02-26T10:55:47;6.28;;;4.00;;
4353;SDS011;11018;51.258;6.806;2024-02-26T10:58:17;6.10;;;3.70;;
4353;SDS011;11018;51.258;6.806;2024-02-26T11:00:43;5.15;;;4.03;;
4353;SDS011;11018;51.258;6.806;2024-02-26T11:03:12;7.07;;;4.10;;
4353;SDS011;11018;51.258;6.806;2024-02-26T11:05:41;5.63;;;4.00;;
4353;SDS011;11018;51.258;6.806;2024-02-26T11:08:07;6.30;;;4.55;;
4353;SDS011;11018;51.258;6.806;2024-02-26T11:10:34;7.50;;;4.90;;
4353;SDS011;11018;51.258;6.806;2024-02-26T11:13:02;7.97;;;4.40;;
4353;SDS011;11018;51.258;6.806;2024-02-26T11:15:31;6.70;;;5.13;;
4353;SDS011;11018;51.258;6.806;2024-02-26T11:17:58;8.35;;;4.95;;
4353;SDS011;11018;51.258;6.806;2024-02-26T11:20:27;6.57;;;4.72;;
4353;SDS011;11018;51.258;6.806;2024-02-26T11:22:54;8.35;;;4.88;;
4353;SDS011;11018;51.258;6.806;2024-02-26T11:25:19;9.90;;;5.17;;
4353;SDS011;11018;51.258;6.806;2024-02-26T11:27:56;6.07;;;4.63;;
4353;SDS011;11018;51.258;6.806;2024-02-26T11:30:26;6.63;;;5.10;;
4353;SDS011;11018;51.258;6.806;2024-02-26T11:32:56;7.10;;;5.07;;
4353;SDS011;11018;51.258;6.806;2024-02-26T11:35:22;6.47;;;4.68;;
4353;SDS011;11018;51.258;6.806;2024-02-26T11:37:55;5.95;;;4.45;;
4353;SDS011;11018;51.258;6.806;2024-02-26T11:40:23;6.20;;;4.50;;
4353;SDS011;11018;51.258;6.806;2024-02-26T11:42:50;8.55;;;4.50;;
4353;SDS011;11018;51.258;6.806;2024-02-26T11:48:13;9.77;;;4.70;;
4353;SDS011;11018;51.258;6.806;2024-02-26T11:50:45;6.63;;;4.70;;
4353;SDS011;11018;51.258;6.806;2024-02-26T11:58:46;7.60;;;5.10;;
4353;SDS011;11018;51.258;6.806;2024-02-26T12:01:36;6.85;;;4.78;;
4353;SDS011;11018;51.258;6.806;2024-02-26T12:04:00;8.93;;;5.40;;
4353;SDS011;11018;51.258;6.806;2024-02-26T12:06:27;7.50;;;5.32;;
4353;SDS011;11018;51.258;6.806;2024-02-26T12:08:53;10.75;;;6.38;;
4353;SDS011;11018;51.258;6.806;2024-02-26T12:11:20;8.95;;;5.88;;
4353;SDS011;11018;51.258;6.806;2024-02-26T12:13:49;9.85;;;5.75;;
4353;SDS011;11018;51.258;6.806;2024-02-26T12:16:34;10.68;;;6.20;;
4353;SDS011;11018;51.258;6.806;2024-02-26T12:19:01;11.23;;;6.30;;
4353;SDS011;11018;51.258;6.806;2024-02-26T12:21:32;9.65;;;6.45;;
4353;SDS011;11018;51.258;6.806;2024-02-26T12:24:09;15.60;;;8.63;;
4353;SDS011;11018;51.258;6.806;2024-02-26T12:26:38;9.80;;;7.03;;
4353;SDS011;11018;51.258;6.806;2024-02-26T12:29:04;10.65;;;6.43;;
4353;SDS011;11018;51.258;6.806;2024-02-26T12:31:31;12.53;;;6.90;;
4353;SDS011;11018;51.258;6.806;2024-02-26T12:33:58;12.38;;;7.20;;
4353;SDS011;11018;51.258;6.806;2024-02-26T12:36:24;14.98;;;8.52;;
4353;SDS011;11018;51.258;6.806;2024-02-26T12:38:50;12.43;;;7.60;;
4353;SDS011;11018;51.258;6.806;2024-02-26T12:41:16;16.57;;;8.80;;
4353;SDS011;11018;51.258;6.806;2024-02-26T12:43:42;12.05;;;7.55;;
4353;SDS011;11018;51.258;6.806;2024-02-26T12:46:08;13.63;;;7.55;;
4353;SDS011;11018;51.258;6.806;2024-02-26T12:48:33;10.80;;;7.10;;
4353;SDS011;11018;51.258;6.806;2024-02-26T12:50:59;12.30;;;7.55;;
4353;SDS011;11018;51.258;6.806;2024-02-26T12:53:26;10.95;;;7.50;;
4353;SDS011;11018;51.258;6.806;2024-02-26T12:55:52;12.40;;;7.80;;
4353;SDS011;11018;51.258;6.806;2024-02-26T12:58:19;14.60;;;7.40;;
4353;SDS011;11018;51.258;6.806;2024-02-26T13:00:49;12.75;;;7.40;;
4353;SDS011;11018;51.258;6.806;2024-02-26T13:03:19;12.02;;;7.75;;
4353;SDS011;11018;51.258;6.806;2024-02-26T13:05:45;11.73;;;7.63;;
4353;SDS011;11018;51.258;6.806;2024-02-26T13:08:20;11.55;;;7.50;;
4353;SDS011;11018;51.258;6.806;2024-02-26T13:10:46;11.70;;;7.55;;
4353;SDS011;11018;51.258;6.806;2024-02-26T13:13:15;11.18;;;7.38;;
4353;SDS011;11018;51.258;6.806;2024-02-26T13:15:44;12.07;;;8.00;;
4353;SDS011;11018;51.258;6.806;2024-02-26T13:18:11;14.80;;;8.20;;
4353;SDS011;11018;51.258;6.806;2024-02-26T13:20:38;11.40;;;7.20;;
4353;SDS011;11018;51.258;6.806;2024-02-26T13:23:09;12.50;;;7.80;;
4353;SDS011;11018;51.258;6.806;2024-02-26T13:25:36;17.38;;;8.43;;
4353;SDS011;11018;51.258;6.806;2024-02-26T13:28:22;13.32;;;8.70;;
4353;SDS011;11018;51.258;6.806;2024-02-26T13:30:53;13.80;;;8.40;;
4353;SDS011;11018;51.258;6.806;2024-02-26T13:33:26;14.98;;;8.73;;
4353;SDS011;11018;51.258;6.806;2024-02-26T13:35:53;13.35;;;8.55;;
4353;SDS011;11018;51.258;6.806;2024-02-26T13:38:23;14.60;;;8.45;;
4353;SDS011;11018;51.258;6.806;2024-02-26T13:40:51;15.07;;;8.90;;
4353;SDS011;11018;51.258;6.806;2024-02-26T13:43:18;13.82;;;8.38;;
4353;SDS011;11018;51.258;6.806;2024-02-26T13:45:44;13.32;;;8.80;;
4353;SDS011;11018;51.258;6.806;2024-02-26T13:48:10;13.65;;;8.50;;
4353;SDS011;11018;51.258;6.806;2024-02-26T13:50:37;13.75;;;8.25;;
4353;SDS011;11018;51.258;6.806;2024-02-26T13:53:08;12.50;;;8.25;;
4353;SDS011;11018;51.258;6.806;2024-02-26T13:55:34;12.88;;;7.78;;
4353;SDS011;11018;51.258;6.806;2024-02-26T13:57:59;16.02;;;9.35;;
4353;SDS011;11018;51.258;6.806;2024-02-26T14:00:27;20.65;;;8.80;;
4353;SDS011;11018;51.258;6.806;2024-02-26T14:02:54;12.25;;;8.45;;
4353;SDS011;11018;51.258;6.806;2024-02-26T14:05:19;13.95;;;8.15;;
4353;SDS011;11018;51.258;6.806;2024-02-26T14:07:45;14.82;;;8.63;;
4353;SDS011;11018;51.258;6.806;2024-02-26T14:10:11;13.88;;;8.48;;
4353;SDS011;11018;51.258;6.806;2024-02-26T14:12:37;12.10;;;7.63;;
4353;SDS011;11018;51.258;6.806;2024-02-26T14:15:05;13.25;;;7.63;;
4353;SDS011;11018;51.258;6.806;2024-02-26T14:17:32;12.30;;;8.02;;
4353;SDS011;11018;51.258;6.806;2024-02-26T14:19:57;15.17;;;8.47;;
4353;SDS011;11018;51.258;6.806;2024-02-26T14:22:23;13.10;;;7.50;;
4353;SDS011;11018;51.258;6.806;2024-02-26T14:24:51;11.38;;;7.10;;
4353;SDS011;11018;51.258;6.806;2024-02-26T14:27:17;10.32;;;7.28;;
4353;SDS011;11018;51.258;6.806;2024-02-26T14:29:45;12.95;;;7.10;;
4353;SDS011;11018;51.258;6.806;2024-02-26T14:32:11;13.90;;;7.32;;
4353;SDS011;11018;51.258;6.806;2024-02-26T14:34:37;11.57;;;6.35;;
4353;SDS011;11018;51.258;6.806;2024-02-26T14:37:03;10.75;;;6.80;;
4353;SDS011;11018;51.258;6.806;2024-02-26T14:39:29;9.27;;;6.43;;
4353;SDS011;11018;51.258;6.806;2024-02-26T14:41:56;11.43;;;6.68;;
4353;SDS011;11018;51.258;6.806;2024-02-26T14:44:22;9.60;;;6.90;;
4353;SDS011;11018;51.258;6.806;2024-02-26T14:46:49;11.77;;;6.70;;
4353;SDS011;11018;51.258;6.806;2024-02-26T14:49:14;11.95;;;6.50;;
4353;SDS011;11018;51.258;6.806;2024-02-26T14:51:40;8.52;;;6.18;;
4353;SDS011;11018;51.258;6.806;2024-02-26T14:54:06;10.25;;;6.10;;
4353;SDS011;11018;51.258;6.806;2024-02-26T14:56:31;9.10;;;6.35;;
4353;SDS011;11018;51.258;6.806;2024-02-26T14:58:57;8.07;;;5.72;;
4353;SDS011;11018;51.258;6.806;2024-02-26T15:01:23;7.85;;;5.90;;
4353;SDS011;11018;51.258;6.806;2024-02-26T15:03:49;12.07;;;6.55;;